Sagamore, Massachusetts
Current Conditions -  °F | °C
As of 8:55 PM on Friday 31 Oct 2014 (Local Time) from KFMH Reporting Station
Overcast Overcast  
Wind Chill: 52°   Ceiling: 5000
Heat Index: 52°   Visibility: 10mi
Dew Point: 39°   Wind: 17mph
Humidity: 62%   Direction: 50°NE
Pressure: 29.94"   Gusts: 26mph
Location:  41.78°N, 70.53°W
Report Text: KFMH 010055Z AUTO 05015G23KT 10SM BKN050 OVC060 11/04 A2994 RMK AO2
Loading
Personal Weather Stations






























Interactive Weather Map
Tropical Storm Tracking
New forecast layout! Learn more

10-Day Weather Forecast

Advertisements
Track Severe Weather on mobile